Pagina principale
METAR-TAF:

METAR-TAF

Aeroporti :

Gibuti, Gibuti

latitudine: 11-33N, longitudine: 043-10E, altezza: 49 m

Osservazione

Il bollettino è stato emesso 9 ore e 24 minuti fa, alle 12:00 UTC
Vento 8 kt da est
Temperature 33°C
Umidità 59%
Pressione 1009 hPa
Visibilità 10 km o più
Poco nuvoloso ad un'altezza di 2300 ft

METAR: HDAM 221200Z 09008KT 9999 FEW023 33/24 Q1009

Ora: 00:24 (21:24 UTC)

Previsione

Il bollettino è stato emesso 4 ore e 24 minuti fa, alle 17:00 UTC
Previsione valida dal 22 alle 18 UTC al 23 alle 18 UTC
Vento 5 kt da direzioni variabili
Visibilità 10 km o più
Poco nuvoloso ad un'altezza di 2300 ft
Evoluzione graduale
dal 23 alle 00 UTC al 23 alle 06 UTC
Vento kt da nord
Poco nuvoloso ad un'altezza di 2000 ft
Evoluzione graduale
dal 23 alle 06 UTC al 23 alle 12 UTC
Vento 12 kt da est
Nubi sparse ad un'altezza di 2300 ft

TAF: HDAM 221700Z 2218/2318 VRB05KT 9999 FEW023 BECMG 2300/2306 00000KT FEW020 BECMG 2306/2312 08012KT SCT023

Osservazioni e previsioni meteorologiche di più di 4000 aeroporti (messaggi METAR e TAF).

Le stazioni disponibili sono rappresentate dai dischi gialli e rossi sulla carta.

Puntare il mouse per vedere il nome della stazione.

Clicca sopra per visualizzare le osservazioni e previsioni meteorologiche.

Per cambiare la mappa : fare clic sui pulsanti verdi con una croce nera per ingrandire, il pulsante verde con un trattino per diminuire, o sulla freccia verde per le mappe adiacenti.


METAR-TAF: